createdAt,value
2022-07-28T00:00:12.518Z,20.41
2022-07-28T00:02:39.118Z,20.40
2022-07-28T00:05:06.392Z,20.34
2022-07-28T00:07:33.245Z,20.33
2022-07-28T00:10:00.815Z,20.29
2022-07-28T00:12:30.393Z,20.24
2022-07-28T00:14:56.922Z,20.20
2022-07-28T00:17:23.458Z,20.07
2022-07-28T00:19:50.712Z,20.10
2022-07-28T00:22:17.722Z,20.02
2022-07-28T00:24:44.220Z,20.04
2022-07-28T00:27:10.736Z,20.03
2022-07-28T00:29:49.104Z,19.91
2022-07-28T00:32:17.223Z,19.97
2022-07-28T00:34:43.959Z,19.91
2022-07-28T00:37:13.347Z,19.93
2022-07-28T00:39:41.129Z,19.85
2022-07-28T00:42:09.708Z,19.80
2022-07-28T00:44:36.331Z,19.82
2022-07-28T00:47:02.890Z,19.79
2022-07-28T00:49:33.392Z,19.74
2022-07-28T00:52:00.597Z,19.71
2022-07-28T00:54:29.474Z,19.71
2022-07-28T00:56:55.993Z,19.71
2022-07-28T00:59:22.527Z,19.70
2022-07-28T01:01:50.981Z,19.63
2022-07-28T01:04:25.854Z,19.63
2022-07-28T01:06:56.824Z,19.61
2022-07-28T01:09:26.973Z,19.58
2022-07-28T01:12:37.188Z,19.52
2022-07-28T01:15:10.317Z,19.44
2022-07-28T01:17:49.775Z,19.45
2022-07-28T01:20:20.456Z,19.44
2022-07-28T01:23:09.650Z,19.39
2022-07-28T01:26:12.643Z,19.35
2022-07-28T01:28:48.654Z,19.32
2022-07-28T01:31:21.517Z,19.30
2022-07-28T01:33:52.356Z,19.26
2022-07-28T01:36:23.049Z,19.23
2022-07-28T01:38:50.291Z,19.17
2022-07-28T01:41:20.349Z,19.13
2022-07-28T01:43:54.570Z,19.07
2022-07-28T01:46:22.766Z,19.08
2022-07-28T01:48:51.395Z,19.05
2022-07-28T01:51:22.687Z,19.07
2022-07-28T01:53:52.080Z,19.02
2022-07-28T01:56:21.526Z,19.03
2022-07-28T01:58:51.356Z,19.01
2022-07-28T02:01:20.391Z,18.93
2022-07-28T02:03:48.410Z,18.94
2022-07-28T02:06:16.250Z,18.86
2022-07-28T02:08:43.330Z,18.86
2022-07-28T02:11:28.302Z,18.84
2022-07-28T02:13:56.441Z,18.84
2022-07-28T02:16:25.619Z,18.84
2022-07-28T02:18:55.233Z,18.79
2022-07-28T02:21:25.377Z,18.75
2022-07-28T02:23:54.115Z,18.71
2022-07-28T02:26:28.552Z,18.63
2022-07-28T02:28:58.158Z,18.62
2022-07-28T02:31:29.561Z,18.63
2022-07-28T02:34:02.165Z,18.65
2022-07-28T02:36:34.859Z,18.60
2022-07-28T02:39:07.398Z,18.62
2022-07-28T02:41:38.793Z,18.60
2022-07-28T02:44:12.434Z,18.61
2022-07-28T02:46:44.021Z,18.57
2022-07-28T02:49:24.013Z,18.53
2022-07-28T02:51:52.325Z,18.49
2022-07-28T02:54:21.309Z,18.48
2022-07-28T02:56:53.377Z,18.49
2022-07-28T02:59:21.889Z,18.43
2022-07-28T03:01:49.631Z,18.39
2022-07-28T03:04:20.107Z,18.39
2022-07-28T03:06:46.691Z,18.28
2022-07-28T03:09:16.114Z,18.31
2022-07-28T03:11:52.947Z,18.31
2022-07-28T03:14:19.440Z,18.32
2022-07-28T03:16:46.205Z,18.31
2022-07-28T03:19:15.278Z,18.29
2022-07-28T03:21:41.891Z,18.25
2022-07-28T03:24:10.551Z,18.18
2022-07-28T03:26:43.044Z,18.16
2022-07-28T03:29:11.023Z,18.15
2022-07-28T03:31:40.553Z,18.14
2022-07-28T03:34:07.284Z,18.08
2022-07-28T03:36:42.445Z,18.11
2022-07-28T03:39:11.824Z,18.04
2022-07-28T03:41:41.004Z,18.07
2022-07-28T03:44:10.497Z,18.00
2022-07-28T03:46:44.001Z,18.07
2022-07-28T03:49:10.587Z,18.06
2022-07-28T03:51:37.251Z,18.04
2022-07-28T03:54:04.279Z,17.90
2022-07-28T03:56:30.766Z,17.96
2022-07-28T03:58:57.328Z,17.92
2022-07-28T04:01:26.925Z,17.89
2022-07-28T04:03:53.509Z,17.97
2022-07-28T04:06:20.018Z,18.01
2022-07-28T04:08:46.663Z,17.98
2022-07-28T04:11:17.752Z,17.98
2022-07-28T04:13:44.239Z,18.00
2022-07-28T04:16:10.769Z,18.00
2022-07-28T04:18:37.284Z,18.02
2022-07-28T04:21:06.693Z,18.07
2022-07-28T04:23:35.505Z,18.03
2022-07-28T04:26:02.010Z,18.06
2022-07-28T04:28:28.563Z,18.17
2022-07-28T04:30:55.137Z,18.22
2022-07-28T04:33:21.703Z,18.22
2022-07-28T04:35:48.274Z,18.32
2022-07-28T04:38:17.140Z,18.34
2022-07-28T04:40:43.661Z,18.39
2022-07-28T04:43:13.178Z,18.38
2022-07-28T04:45:46.067Z,18.46
2022-07-28T04:48:21.310Z,18.61
2022-07-28T04:50:47.819Z,18.72
2022-07-28T04:53:14.302Z,18.83
2022-07-28T04:55:43.393Z,18.86
2022-07-28T04:58:12.448Z,18.92
2022-07-28T05:00:39.458Z,18.91
2022-07-28T05:03:06.046Z,19.03
2022-07-28T05:05:32.578Z,19.33
2022-07-28T05:07:59.103Z,19.67
2022-07-28T05:10:25.682Z,20.05
2022-07-28T05:12:54.576Z,20.37
2022-07-28T05:15:21.329Z,20.87
2022-07-28T05:17:49.746Z,21.30
2022-07-28T05:20:18.576Z,21.92
2022-07-28T05:22:47.100Z,22.41
2022-07-28T05:25:20.674Z,23.02
2022-07-28T05:27:48.172Z,23.60
2022-07-28T05:30:15.619Z,24.07
2022-07-28T05:32:42.601Z,24.61
2022-07-28T05:35:14.485Z,25.03
2022-07-28T05:37:41.136Z,25.68
2022-07-28T05:40:15.490Z,26.22
2022-07-28T05:42:43.230Z,26.90
2022-07-28T05:45:15.069Z,27.40
2022-07-28T05:47:52.366Z,27.42
2022-07-28T05:50:21.769Z,27.69
2022-07-28T05:52:49.261Z,27.62
2022-07-28T05:55:16.154Z,28.26
2022-07-28T05:57:42.908Z,28.62
2022-07-28T06:00:13.051Z,28.98
2022-07-28T06:02:40.644Z,29.63
2022-07-28T06:05:08.059Z,29.73
2022-07-28T06:07:42.891Z,29.13
2022-07-28T06:10:15.087Z,28.94
2022-07-28T06:12:50.507Z,28.73
2022-07-28T06:15:22.429Z,29.05
2022-07-28T06:17:59.920Z,29.30
2022-07-28T06:20:27.895Z,29.15
2022-07-28T06:22:57.510Z,29.32
2022-07-28T06:25:28.540Z,29.64
2022-07-28T06:27:57.141Z,29.51
2022-07-28T06:30:26.336Z,29.33
2022-07-28T06:32:53.400Z,29.18
2022-07-28T06:35:21.116Z,29.15
2022-07-28T06:37:51.478Z,29.37
2022-07-28T06:40:20.512Z,29.52
2022-07-28T06:42:47.212Z,30.24
2022-07-28T06:45:20.937Z,30.39
2022-07-28T06:47:50.560Z,30.43
2022-07-28T06:50:24.913Z,30.54
2022-07-28T06:52:52.063Z,30.52
2022-07-28T06:55:18.623Z,30.71
2022-07-28T06:57:45.157Z,30.98
2022-07-28T07:00:14.148Z,30.79
2022-07-28T07:02:42.039Z,30.91
2022-07-28T07:05:12.579Z,31.29
2022-07-28T07:07:43.099Z,31.29
2022-07-28T07:10:10.806Z,30.51
2022-07-28T07:12:37.569Z,30.90
2022-07-28T07:15:07.896Z,30.88
2022-07-28T07:17:37.349Z,31.03
2022-07-28T07:20:08.994Z,31.37
2022-07-28T07:22:41.867Z,31.55
2022-07-28T07:25:11.743Z,31.39
2022-07-28T07:27:40.789Z,31.62
2022-07-28T07:30:08.738Z,32.07
2022-07-28T07:32:36.555Z,32.09
2022-07-28T07:35:03.673Z,32.27
2022-07-28T07:37:32.603Z,32.05
2022-07-28T07:40:00.409Z,31.90
2022-07-28T07:42:27.202Z,32.16
2022-07-28T07:44:53.721Z,32.20
2022-07-28T07:47:20.303Z,32.21
2022-07-28T07:49:46.935Z,32.02
2022-07-28T07:52:14.422Z,32.24
2022-07-28T07:54:41.669Z,32.16
2022-07-28T07:57:10.364Z,32.39
2022-07-28T07:59:38.190Z,32.41
2022-07-28T08:02:05.147Z,32.76
2022-07-28T08:04:31.780Z,32.78
2022-07-28T08:07:04.379Z,32.43
2022-07-28T08:09:32.171Z,32.68
2022-07-28T08:11:58.666Z,32.72
2022-07-28T08:14:28.620Z,32.84
2022-07-28T08:16:56.673Z,32.75
2022-07-28T08:19:23.371Z,32.80
2022-07-28T08:21:50.379Z,32.35
2022-07-28T08:24:32.929Z,32.35
2022-07-28T08:27:06.344Z,32.21
2022-07-28T08:29:36.017Z,32.43
2022-07-28T08:32:04.127Z,32.75
2022-07-28T08:34:33.617Z,32.91
2022-07-28T08:37:07.911Z,32.42
2022-07-28T08:39:36.066Z,32.49
2022-07-28T08:42:07.136Z,32.47
2022-07-28T08:44:55.009Z,32.24
2022-07-28T08:47:22.342Z,32.18
2022-07-28T08:49:50.224Z,32.48
2022-07-28T08:52:21.229Z,32.48
2022-07-28T08:54:49.501Z,32.37
2022-07-28T08:57:25.914Z,32.25
2022-07-28T08:59:52.837Z,32.21
2022-07-28T09:02:20.193Z,32.38
2022-07-28T09:04:47.454Z,32.29
2022-07-28T09:07:16.973Z,32.23
2022-07-28T09:09:43.747Z,32.36
2022-07-28T09:12:10.385Z,32.21
2022-07-28T09:14:36.949Z,32.30
2022-07-28T09:17:05.557Z,32.48
2022-07-28T09:19:34.464Z,32.28
2022-07-28T09:22:03.573Z,32.46
2022-07-28T09:24:35.146Z,32.35
2022-07-28T09:27:07.677Z,32.27
2022-07-28T09:29:37.496Z,32.22
2022-07-28T09:32:05.369Z,32.15
2022-07-28T09:34:47.372Z,32.54
2022-07-28T09:37:23.329Z,32.79
2022-07-28T09:39:59.362Z,32.89
2022-07-28T09:42:26.899Z,32.88
2022-07-28T09:45:24.530Z,32.92
2022-07-28T09:48:09.839Z,32.74
2022-07-28T09:50:37.523Z,32.68
2022-07-28T09:53:23.748Z,32.51
2022-07-28T09:55:59.058Z,32.38
2022-07-28T09:58:26.902Z,31.93
2022-07-28T10:01:07.191Z,31.92
2022-07-28T10:03:39.225Z,31.71
2022-07-28T10:06:08.517Z,31.82
2022-07-28T10:08:49.056Z,32.08
2022-07-28T10:11:18.165Z,31.86
2022-07-28T10:14:03.014Z,31.79
2022-07-28T10:16:34.935Z,31.86
2022-07-28T10:19:05.477Z,31.77
2022-07-28T10:21:35.861Z,32.07
2022-07-28T10:24:06.275Z,32.22
2022-07-28T10:26:39.146Z,31.70
2022-07-28T10:29:09.576Z,31.37
2022-07-28T10:31:43.909Z,31.43
2022-07-28T10:34:17.890Z,31.49
2022-07-28T10:36:56.579Z,31.50
2022-07-28T10:39:28.705Z,31.41
2022-07-28T10:41:58.982Z,31.17
2022-07-28T10:44:26.474Z,31.08
2022-07-28T10:46:53.763Z,31.13
2022-07-28T10:49:21.143Z,31.00
2022-07-28T10:52:04.897Z,30.95
2022-07-28T10:55:01.517Z,30.91
2022-07-28T10:57:31.621Z,30.81
2022-07-28T11:00:13.352Z,30.84
2022-07-28T11:02:43.245Z,30.89
2022-07-28T11:05:43.867Z,30.74
2022-07-28T11:08:28.422Z,30.57
2022-07-28T11:11:07.428Z,30.56
2022-07-28T11:13:36.874Z,30.81
2022-07-28T11:16:13.673Z,30.87
2022-07-28T11:19:07.884Z,30.77
2022-07-28T11:22:18.433Z,30.78
2022-07-28T11:25:19.088Z,31.22
2022-07-28T11:27:54.472Z,31.47
2022-07-28T11:30:35.696Z,31.25
2022-07-28T11:33:04.432Z,31.19
2022-07-28T11:35:39.758Z,31.21
2022-07-28T11:38:07.893Z,31.14
2022-07-28T11:40:38.672Z,31.12
2022-07-28T11:43:36.607Z,31.13
2022-07-28T11:46:04.630Z,31.43
2022-07-28T11:48:37.147Z,31.43
2022-07-28T11:51:03.659Z,31.34
2022-07-28T11:53:32.917Z,31.07
2022-07-28T11:56:02.748Z,31.12
2022-07-28T11:58:29.796Z,31.13
2022-07-28T12:01:17.403Z,31.12
2022-07-28T12:03:55.041Z,31.45
2022-07-28T12:06:28.718Z,31.40
2022-07-28T12:09:02.209Z,31.37
2022-07-28T12:11:33.101Z,31.42
2022-07-28T12:14:01.197Z,31.52
2022-07-28T12:16:28.876Z,31.61
2022-07-28T12:18:55.976Z,31.66
2022-07-28T12:21:46.415Z,31.67
2022-07-28T12:24:30.894Z,31.73
2022-07-28T12:27:00.916Z,31.76
2022-07-28T12:29:32.169Z,31.67
2022-07-28T12:32:09.097Z,31.98
2022-07-28T12:34:37.955Z,32.02
2022-07-28T12:37:06.215Z,31.97
2022-07-28T12:39:39.483Z,31.84
2022-07-28T12:42:08.737Z,31.64
2022-07-28T12:44:38.132Z,31.58
2022-07-28T12:47:07.815Z,31.58
2022-07-28T12:49:39.485Z,31.53
2022-07-28T12:52:21.635Z,31.28
2022-07-28T12:54:53.589Z,31.34
2022-07-28T12:57:50.564Z,31.43
2022-07-28T13:00:20.599Z,31.49
2022-07-28T13:02:51.412Z,31.41
2022-07-28T13:05:27.890Z,31.49
2022-07-28T13:08:05.828Z,31.32
2022-07-28T13:10:32.772Z,31.37
2022-07-28T13:13:03.559Z,31.48
2022-07-28T13:15:31.967Z,31.62
2022-07-28T13:17:59.412Z,31.52
2022-07-28T13:20:26.904Z,31.31
2022-07-28T13:22:54.641Z,31.22
2022-07-28T13:25:21.569Z,31.17
2022-07-28T13:27:55.152Z,31.14
2022-07-28T13:30:23.318Z,31.20
2022-07-28T13:32:50.202Z,31.44
2022-07-28T13:35:21.012Z,31.62
2022-07-28T13:37:48.094Z,31.57
2022-07-28T13:40:14.731Z,31.25
2022-07-28T13:42:53.381Z,31.06
2022-07-28T13:45:23.809Z,31.12
2022-07-28T13:47:53.477Z,31.22
2022-07-28T13:50:20.906Z,31.22
2022-07-28T13:52:50.071Z,31.23
2022-07-28T13:55:20.879Z,31.31
2022-07-28T13:57:50.184Z,31.28
2022-07-28T14:00:18.853Z,31.35
2022-07-28T14:02:49.315Z,31.28
2022-07-28T14:05:18.125Z,31.26
2022-07-28T14:07:49.257Z,31.18
2022-07-28T14:10:17.779Z,31.20
2022-07-28T14:12:46.005Z,31.09
2022-07-28T14:15:13.667Z,31.03
2022-07-28T14:17:44.348Z,31.03
2022-07-28T14:20:17.451Z,31.17
2022-07-28T14:22:44.778Z,31.18
2022-07-28T14:25:20.535Z,31.05
2022-07-28T14:27:51.814Z,31.00
2022-07-28T14:30:19.755Z,30.89
2022-07-28T14:32:46.247Z,30.77
2022-07-28T14:35:14.985Z,30.73
2022-07-28T14:38:11.548Z,30.63
2022-07-28T14:40:28.243Z,30.57
2022-07-28T14:42:56.123Z,30.54
2022-07-28T14:45:22.614Z,30.69
2022-07-28T14:47:49.130Z,30.72
2022-07-28T14:50:18.377Z,30.89
2022-07-28T14:52:45.347Z,31.06
2022-07-28T14:55:12.595Z,31.13
2022-07-28T14:57:51.881Z,31.09
2022-07-28T15:00:22.663Z,31.21
2022-07-28T15:02:51.367Z,31.32
2022-07-28T15:05:19.028Z,31.38
2022-07-28T15:07:48.630Z,31.39
2022-07-28T15:10:15.650Z,31.31
2022-07-28T15:12:42.164Z,31.11
2022-07-28T15:15:09.409Z,30.90
2022-07-28T15:17:37.437Z,30.81
2022-07-28T15:20:06.768Z,30.53
2022-07-28T15:22:34.328Z,30.37
2022-07-28T15:25:01.322Z,30.46
2022-07-28T15:27:33.028Z,30.40
2022-07-28T15:30:00.364Z,30.25
2022-07-28T15:32:30.160Z,30.38
2022-07-28T15:34:56.685Z,30.42
2022-07-28T15:37:23.269Z,30.46
2022-07-28T15:39:50.261Z,30.37
2022-07-28T15:42:19.833Z,30.37
2022-07-28T15:44:46.382Z,30.58
2022-07-28T15:47:15.965Z,30.70
2022-07-28T15:49:42.686Z,30.63
2022-07-28T15:52:14.069Z,30.51
2022-07-28T15:54:43.627Z,30.49
2022-07-28T15:57:12.330Z,30.51
2022-07-28T15:59:50.021Z,30.49
2022-07-28T16:02:18.221Z,30.51
2022-07-28T16:04:52.208Z,30.47
2022-07-28T16:07:30.889Z,30.38
2022-07-28T16:09:57.419Z,30.33
2022-07-28T16:12:25.416Z,30.29
2022-07-28T16:14:55.241Z,30.26
2022-07-28T16:17:22.650Z,30.24
2022-07-28T16:19:51.277Z,30.15
2022-07-28T16:22:19.201Z,30.16
2022-07-28T16:24:46.160Z,30.12
2022-07-28T16:27:12.922Z,30.08
2022-07-28T16:29:39.448Z,30.00
2022-07-28T16:32:06.109Z,29.96
2022-07-28T16:34:32.608Z,29.93
2022-07-28T16:37:05.699Z,29.91
2022-07-28T16:39:33.100Z,29.88
2022-07-28T16:42:01.408Z,29.87
2022-07-28T16:44:28.478Z,29.85
2022-07-28T16:46:55.101Z,29.80
2022-07-28T16:49:21.772Z,29.71
2022-07-28T16:51:55.446Z,29.69
2022-07-28T16:54:22.430Z,29.62
2022-07-28T16:56:49.310Z,29.58
2022-07-28T16:59:15.998Z,29.55
2022-07-28T17:01:46.218Z,29.51
2022-07-28T17:04:16.909Z,29.50
2022-07-28T17:06:44.423Z,29.39
2022-07-28T17:09:11.348Z,29.32
2022-07-28T17:11:38.065Z,29.29
2022-07-28T17:14:04.728Z,29.28
2022-07-28T17:16:31.301Z,29.23
2022-07-28T17:18:57.952Z,29.18
2022-07-28T17:21:27.117Z,29.14
2022-07-28T17:23:53.857Z,29.12
2022-07-28T17:29:10.373Z,28.99
2022-07-28T17:31:38.306Z,28.93
2022-07-28T17:34:05.088Z,28.93
2022-07-28T17:36:35.161Z,28.90
2022-07-28T17:39:01.957Z,28.89
2022-07-28T17:41:28.701Z,28.83
2022-07-28T17:43:55.230Z,28.78
2022-07-28T17:46:21.876Z,28.66
2022-07-28T17:48:48.547Z,28.67
2022-07-28T17:51:15.218Z,28.63
2022-07-28T17:53:42.807Z,28.59
2022-07-28T17:56:14.773Z,28.53
2022-07-28T17:58:41.306Z,28.51
2022-07-28T18:01:13.741Z,28.47
2022-07-28T18:03:58.595Z,28.43
2022-07-28T18:06:36.154Z,28.40
2022-07-28T18:09:12.015Z,28.34
2022-07-28T18:11:57.563Z,28.33
2022-07-28T18:14:26.641Z,28.25
2022-07-28T18:16:53.198Z,28.25
2022-07-28T18:19:19.738Z,28.23
2022-07-28T18:21:46.251Z,28.18
2022-07-28T18:24:13.104Z,28.14
2022-07-28T18:26:39.930Z,28.05
2022-07-28T18:29:12.359Z,28.09
2022-07-28T18:31:45.460Z,28.05
2022-07-28T18:34:13.480Z,28.02
2022-07-28T18:36:40.320Z,27.98
2022-07-28T18:39:06.794Z,27.95
2022-07-28T18:41:34.571Z,27.91
2022-07-28T18:44:13.646Z,27.85
2022-07-28T18:46:40.344Z,27.78
2022-07-28T18:49:07.015Z,27.73
2022-07-28T18:51:33.535Z,27.68
2022-07-28T18:54:00.062Z,27.61
2022-07-28T18:56:26.655Z,27.55
2022-07-28T18:58:55.949Z,27.51
2022-07-28T19:01:22.680Z,27.46
2022-07-28T19:03:49.256Z,27.39
2022-07-28T19:06:15.778Z,27.33
2022-07-28T19:15:30.011Z,26.86
2022-07-28T19:18:11.329Z,26.28
2022-07-28T19:20:47.506Z,26.26
2022-07-28T19:45:48.840Z,25.60
2022-07-28T19:48:15.453Z,25.62
2022-07-28T19:50:48.561Z,25.67
2022-07-28T19:53:19.155Z,25.75
2022-07-28T19:55:51.370Z,25.84
2022-07-28T19:58:18.768Z,25.93
2022-07-28T20:00:47.598Z,25.96
2022-07-28T20:04:03.571Z,26.01
2022-07-28T20:06:04.206Z,26.05
2022-07-28T20:08:31.174Z,26.08
2022-07-28T20:10:57.786Z,26.11
2022-07-28T20:13:24.362Z,26.14
2022-07-28T20:15:51.009Z,26.17
2022-07-28T20:18:19.289Z,26.19
2022-07-28T20:20:47.110Z,26.20
2022-07-28T20:23:14.744Z,26.18
2022-07-28T20:25:42.312Z,26.19
2022-07-28T20:28:09.188Z,26.17
2022-07-28T20:30:35.801Z,26.16
2022-07-28T20:33:04.056Z,26.13
2022-07-28T20:35:30.575Z,26.10
2022-07-28T20:37:57.178Z,26.11
2022-07-28T20:40:23.838Z,26.08
2022-07-28T20:42:53.354Z,26.08
2022-07-28T20:45:20.173Z,26.05
2022-07-28T20:47:46.800Z,26.00
2022-07-28T20:50:14.670Z,25.97
2022-07-28T20:52:41.773Z,25.92
2022-07-28T20:55:09.511Z,25.93
2022-07-28T20:57:36.175Z,25.91
2022-07-28T21:00:04.758Z,25.92
2022-07-28T21:02:31.372Z,25.93
2022-07-28T21:04:57.918Z,25.93
2022-07-28T21:08:05.173Z,25.94
2022-07-28T21:10:11.811Z,25.93
2022-07-28T21:12:39.081Z,25.93
2022-07-28T21:15:07.226Z,25.93
2022-07-28T21:17:33.762Z,25.82
2022-07-28T21:20:00.386Z,25.62
2022-07-28T21:22:26.905Z,25.53
2022-07-28T21:24:55.596Z,25.44
2022-07-28T21:27:22.915Z,25.40
2022-07-28T21:29:49.636Z,25.37
2022-07-28T21:32:16.274Z,25.30
2022-07-28T21:34:42.922Z,25.25
2022-07-28T21:37:11.505Z,25.20
2022-07-28T21:39:39.008Z,25.12
2022-07-28T21:42:08.578Z,25.06
2022-07-28T21:44:36.680Z,24.98
2022-07-28T21:47:03.515Z,24.85
2022-07-28T21:49:31.156Z,24.67
2022-07-28T21:51:57.725Z,24.50
2022-07-28T21:54:24.297Z,24.21
2022-07-28T21:56:50.850Z,23.92
2022-07-28T21:59:17.453Z,23.37
2022-07-28T22:01:44.007Z,23.00
2022-07-28T22:04:10.644Z,22.75
2022-07-28T22:06:37.111Z,22.48
2022-07-28T22:09:03.754Z,22.32
2022-07-28T22:11:30.327Z,22.16
2022-07-28T22:13:56.834Z,22.06
2022-07-28T22:16:23.435Z,21.93
2022-07-28T22:18:50.000Z,21.74
2022-07-28T22:21:16.603Z,21.56
2022-07-28T22:23:43.177Z,21.47
2022-07-28T22:26:09.720Z,21.33
2022-07-28T22:28:36.212Z,21.32
2022-07-28T22:31:08.642Z,21.16
2022-07-28T22:33:37.423Z,21.06
2022-07-28T22:36:05.175Z,20.91
2022-07-28T22:38:31.734Z,20.90
2022-07-28T22:40:58.604Z,20.87
2022-07-28T22:43:25.355Z,20.77
2022-07-28T22:45:51.985Z,20.74
2022-07-28T22:48:18.880Z,20.65
2022-07-28T22:50:45.465Z,20.62
2022-07-28T22:53:12.129Z,20.61
2022-07-28T22:55:39.841Z,20.59
2022-07-28T22:58:06.616Z,20.57
2022-07-28T23:00:33.744Z,20.60
2022-07-28T23:03:03.629Z,20.63
2022-07-28T23:05:30.611Z,20.63
2022-07-28T23:07:58.828Z,20.68
2022-07-28T23:10:26.421Z,20.70
2022-07-28T23:12:57.256Z,20.72
2022-07-28T23:15:25.038Z,20.74
2022-07-28T23:18:07.006Z,20.73
2022-07-28T23:20:33.569Z,20.74
2022-07-28T23:23:00.074Z,20.77
2022-07-28T23:25:26.592Z,20.80
2022-07-28T23:27:53.139Z,20.78
2022-07-28T23:30:19.752Z,20.77
2022-07-28T23:32:46.278Z,20.70
2022-07-28T23:35:12.872Z,20.66
2022-07-28T23:37:39.382Z,20.67
2022-07-28T23:40:06.541Z,20.69
2022-07-28T23:42:33.013Z,20.68
2022-07-28T23:44:59.550Z,20.62
2022-07-28T23:47:26.018Z,20.64
2022-07-28T23:49:52.661Z,20.71
2022-07-28T23:52:19.182Z,20.75
2022-07-28T23:54:45.686Z,20.77
2022-07-28T23:57:12.218Z,20.77
2022-07-28T23:59:38.689Z,20.77
